Airfield :
LOGIN :

Register | Disclaimer

   EN    FR    IT 

 










Legend :    VFR   Marginal VFR   IFR   Intensive IFR   Very Intensive IFR
Visi :
Ceiling :
>= 8 km
>= 3000ft
5 to 8 km
1000 to 3000 ft
1500m to 5 km
500 to 1000 ft
800 to 1500m
200 to 500 ft
< 800m
< 200 ft
Symbols :   Thunderstorms  Fog  Heavy snow  Heavy precipitations  Wind > 20 kt
SIGMETs :     Misc.  Thunderstorms  Icing  Turbulence  Mountain Waves  Volcanic Ashes







- Airport Elevation : 36 ft
- IATA code : RIX


EVRA - Riga

CURRENT METAR :
  • 161950Z 16013KT 3500 SN BKN005 OVC019 M02/M02 Q0994 R18/490330 NOSIG

EXPIRED METARs :
  • 161920Z 16012KT 4700 SN OVC006 M02/M02 Q0995 R18/490239 NOSIG
  • 161850Z 17012KT 7000 -SN OVC007 M03/M03 Q0996 R18/490295 NOSIG
  • 161820Z 17011KT 9999 SCT046 M03/M04 Q0996 R18/490295 NOSIG
  • 161750Z 17009KT CAVOK M03/M04 Q0997 R18/490295 NOSIG
  • 161720Z 17008KT 9999 SCT036 M04/M05 Q0998 R18/490295 NOSIG

TAF TAF EVRA
Valid from the 16 at 18:00 until the 17 at 18:00 UTC


161703Z 1618/1718 20010KT 9999 OVC010
TEMPO 1618/1624 2000 -FZDZ -SNRA OVC002
TEMPO 1700/1715 22015G28KT 4000 -RA BKN005 OVC010
BECMG 1715/1717 BKN030
No reported NOTAMs for that airfield.



MET'MAP, your aeronautical weather chart ! - Copyright ORBIFLY December 2007 - Disclaimer

ORBIFLY MET'MAP TEAM :

Programming & Development : Alexandra Zaïnal
Concept & Development : Baudouin d'Aumeries
Co-Development & Prog : Marc-Olivier Méhu
Technical & hardware support : Manuel Goepfert

Contact : metmap@orbifly.com




SOURCES & CREDITS :

   NOAA